Time;durP1;ratioP1;P1;durP2;ratioP2;P2;SDS_P1;SDS_P2;PMS_P1;PMS_P2;Temp;Humidity;BMP_temperature;BMP_pressure;BME280_temperature;BME280_humidity;BME280_pressure;Samples;Min_cycle;Max_cycle;Signal;HPM_P1;HPM_P2
2022/01/07 00:01:30;;;;;;;0.40;0.20;;;-0.50;99.90;;;;;;5133647;27;20385;-72
2022/01/07 00:03:56;;;;;;;0.40;0.20;;;-0.40;99.90;;;;;;5132818;27;20714;-72
2022/01/07 00:06:21;;;;;;;0.40;0.20;;;-0.40;99.90;;;;;;5133201;27;20758;-72
2022/01/07 00:08:47;;;;;;;0.40;0.20;;;-0.50;99.90;;;;;;5132895;27;20840;-72
2022/01/07 00:11:13;;;;;;;0.40;0.40;;;-0.50;99.90;;;;;;5132630;27;20411;-72
2022/01/07 00:13:39;;;;;;;0.40;0.25;;;-0.40;99.90;;;;;;5133187;27;20370;-72
2022/01/07 00:16:05;;;;;;;0.40;0.20;;;-0.40;99.90;;;;;;5132567;27;20894;-72
2022/01/07 00:18:31;;;;;;;0.40;0.20;;;-0.40;99.90;;;;;;5133004;27;20440;-72
2022/01/07 00:20:57;;;;;;;0.40;0.20;;;-0.40;99.90;;;;;;5132995;27;20847;-72
2022/01/07 00:23:22;;;;;;;0.40;0.20;;;-0.40;99.90;;;;;;5132409;27;20451;-72
2022/01/07 00:25:49;;;;;;;0.40;0.20;;;-0.50;99.90;;;;;;5132826;27;20433;-72
2022/01/07 00:28:16;;;;;;;0.40;0.20;;;-0.40;99.90;;;;;;5132125;27;20406;-72
2022/01/07 00:30:42;;;;;;;0.40;0.30;;;-0.50;99.90;;;;;;5132990;27;20496;-72
2022/01/07 00:33:08;;;;;;;0.40;0.20;;;-0.50;99.90;;;;;;5132839;27;20407;-72
2022/01/07 00:35:34;;;;;;;0.40;0.20;;;-0.50;99.90;;;;;;5132694;27;20485;-72
2022/01/07 00:38:00;;;;;;;0.40;0.20;;;-0.50;99.90;;;;;;5132608;27;20379;-72
2022/01/07 00:40:26;;;;;;;0.40;0.20;;;-0.50;99.90;;;;;;5132170;27;20420;-72
2022/01/07 00:42:53;;;;;;;0.40;0.20;;;-0.60;99.90;;;;;;5132473;27;20486;-72
2022/01/07 00:45:21;;;;;;;0.40;0.20;;;-0.60;99.90;;;;;;5113510;28;20479;-72
2022/01/07 00:47:47;;;;;;;0.40;0.20;;;-0.50;99.90;;;;;;5111732;28;20948;-72
2022/01/07 00:50:14;;;;;;;0.40;0.20;;;-0.60;99.90;;;;;;5111990;28;20373;-72
2022/01/07 00:52:40;;;;;;;0.40;0.20;;;-0.60;99.90;;;;;;5111504;28;20379;-72
2022/01/07 00:55:08;;;;;;;0.40;0.20;;;-0.50;99.90;;;;;;5111949;28;20764;-72
2022/01/07 00:57:34;;;;;;;0.40;0.30;;;-0.50;99.90;;;;;;5111339;28;20381;-72
2022/01/07 00:59:59;;;;;;;0.40;0.20;;;-0.70;99.90;;;;;;5111535;28;20721;-72
2022/01/07 01:02:25;;;;;;;0.40;0.20;;;-0.70;99.90;;;;;;5110948;28;20499;-72
2022/01/07 01:04:51;;;;;;;0.40;0.20;;;-0.70;99.90;;;;;;5111368;28;20382;-72
2022/01/07 01:07:17;;;;;;;0.70;0.70;;;-0.50;99.90;;;;;;5111840;28;20407;-71
2022/01/07 01:09:43;;;;;;;0.40;0.20;;;-0.60;99.90;;;;;;5111250;28;20396;-72
2022/01/07 01:12:11;;;;;;;0.40;0.20;;;-0.60;99.90;;;;;;5111603;28;20376;-72
2022/01/07 01:14:37;;;;;;;0.40;0.20;;;-0.70;99.90;;;;;;5110820;28;20394;-72
2022/01/07 01:17:03;;;;;;;0.40;0.20;;;-0.70;99.90;;;;;;5111485;28;20395;-72
2022/01/07 01:19:29;;;;;;;0.40;0.20;;;-0.70;99.90;;;;;;5111210;28;20383;-72
2022/01/07 01:21:55;;;;;;;0.40;0.20;;;-0.50;99.90;;;;;;5110562;28;20364;-72
2022/01/07 01:24:22;;;;;;;0.40;0.20;;;-0.50;99.90;;;;;;5111124;28;20460;-72
2022/01/07 01:26:47;;;;;;;0.40;0.20;;;-0.50;99.90;;;;;;5110880;28;20397;-71
2022/01/07 01:29:13;;;;;;;0.40;0.20;;;-0.60;99.90;;;;;;5111219;28;20376;-72
2022/01/07 01:31:39;;;;;;;0.40;0.20;;;-0.70;99.90;;;;;;5110702;28;20383;-72
2022/01/07 01:34:05;;;;;;;0.50;0.50;;;-0.60;99.90;;;;;;5111231;28;20379;-72
2022/01/07 01:36:31;;;;;;;0.40;0.20;;;-0.70;99.90;;;;;;5111213;28;20741;-72
2022/01/07 01:38:57;;;;;;;0.40;0.20;;;-0.70;99.90;;;;;;5110857;28;20410;-72
2022/01/07 01:41:23;;;;;;;0.40;0.20;;;-0.70;99.90;;;;;;5111352;28;20368;-72
2022/01/07 01:43:49;;;;;;;0.40;0.20;;;-0.60;99.90;;;;;;5115877;28;20379;-72
2022/01/07 01:46:19;;;;;;;0.40;0.20;;;-0.70;99.90;;;;;;5131504;28;20385;-72
2022/01/07 01:48:45;;;;;;;0.40;0.20;;;-0.70;99.90;;;;;;5131589;28;20452;-71
2022/01/07 01:51:13;;;;;;;0.40;0.20;;;-0.70;99.90;;;;;;5130979;28;20405;-72
2022/01/07 01:53:39;;;;;;;0.40;0.20;;;-0.60;99.90;;;;;;5131551;28;20861;-72
2022/01/07 01:56:05;;;;;;;0.40;0.30;;;-0.60;99.90;;;;;;5133983;27;20375;-72
2022/01/07 01:58:32;;;;;;;0.40;0.30;;;-0.60;99.90;;;;;;5135872;27;20446;-72
2022/01/07 02:00:57;;;;;;;0.40;0.20;;;-0.60;99.90;;;;;;5135194;27;20393;-72
2022/01/07 02:03:23;;;;;;;0.40;0.28;;;-0.60;99.90;;;;;;5135760;27;20867;-72
2022/01/07 02:05:49;;;;;;;0.40;0.20;;;-0.80;99.90;;;;;;5135651;27;20469;-72
2022/01/07 02:08:15;;;;;;;0.40;0.20;;;-0.60;99.90;;;;;;5135187;27;20414;-72
2022/01/07 02:10:42;;;;;;;0.40;0.20;;;-0.60;99.90;;;;;;5135628;27;20449;-72
2022/01/07 02:13:08;;;;;;;0.40;0.20;;;-0.70;99.90;;;;;;5135001;27;20375;-72
2022/01/07 02:15:33;;;;;;;0.40;0.20;;;-0.60;99.90;;;;;;5135431;27;20382;-72
2022/01/07 02:17:59;;;;;;;0.40;0.20;;;-0.70;99.90;;;;;;5135856;27;20755;-72
2022/01/07 02:20:31;;;;;;;0.40;0.20;;;-0.60;99.90;;;;;;5134823;27;20854;-72
2022/01/07 02:22:58;;;;;;;0.40;0.20;;;-0.70;99.90;;;;;;5135387;27;20462;-72
2022/01/07 02:25:24;;;;;;;0.40;0.20;;;-0.70;99.90;;;;;;5134584;27;20412;-72
2022/01/07 02:27:50;;;;;;;0.40;0.20;;;-0.60;99.90;;;;;;5135364;27;20433;-72
2022/01/07 02:30:26;;;;;;;0.40;0.20;;;-0.70;99.90;;;;;;5116273;27;20414;-72
2022/01/07 02:32:52;;;;;;;0.40;0.20;;;-0.70;99.90;;;;;;5135275;27;20407;-72
2022/01/07 02:35:20;;;;;;;0.40;0.20;;;-0.70;99.90;;;;;;5134506;27;20473;-72
2022/01/07 02:37:46;;;;;;;0.40;0.30;;;-0.70;99.90;;;;;;5135524;27;20485;-72
2022/01/07 02:40:12;;;;;;;0.40;0.20;;;-0.70;99.90;;;;;;5135040;27;20477;-72
2022/01/07 02:42:39;;;;;;;0.40;0.20;;;-0.70;99.90;;;;;;5134500;27;20374;-72
2022/01/07 02:45:08;;;;;;;0.40;0.30;;;-0.70;99.90;;;;;;5118959;27;20384;-71
2022/01/07 02:47:54;;;;;;;0.40;0.30;;;-0.70;99.90;;;;;;5113689;28;20426;-72
2022/01/07 02:50:33;;;;;;;0.40;0.20;;;-0.60;99.90;;;;;;5114260;28;20383;-71
2022/01/07 02:52:59;;;;;;;0.40;0.20;;;-0.70;99.90;;;;;;5114521;28;20427;-71
2022/01/07 02:55:26;;;;;;;0.40;0.30;;;-0.80;99.90;;;;;;5114152;28;20373;-71
2022/01/07 02:57:53;;;;;;;0.40;0.20;;;-0.80;99.90;;;;;;5113663;28;20380;-72
2022/01/07 03:00:21;;;;;;;0.40;0.20;;;-0.70;99.90;;;;;;5113792;28;20380;-71
2022/01/07 03:02:48;;;;;;;0.40;0.20;;;-0.70;99.90;;;;;;5095221;28;20744;-71
2022/01/07 03:05:15;;;;;;;0.40;0.20;;;-0.70;99.90;;;;;;5113650;28;20866;-71
2022/01/07 03:07:41;;;;;;;0.40;0.20;;;-0.80;99.90;;;;;;5112362;28;20408;-71
2022/01/07 03:10:09;;;;;;;0.40;0.20;;;-0.70;99.90;;;;;;5113991;28;20408;-72
2022/01/07 03:12:36;;;;;;;0.40;0.20;;;-0.80;99.90;;;;;;5113982;28;20447;-71
2022/01/07 03:15:06;;;;;;;0.40;0.30;;;-0.70;99.90;;;;;;5113123;28;20376;-71
2022/01/07 03:17:32;;;;;;;0.40;0.20;;;-0.70;99.90;;;;;;5113816;28;20441;-71
2022/01/07 03:19:58;;;;;;;0.40;0.30;;;-0.60;99.90;;;;;;5113247;28;20376;-71
2022/01/07 03:22:23;;;;;;;0.40;0.30;;;-0.70;99.90;;;;;;5113638;28;20376;-72
2022/01/07 03:24:49;;;;;;;0.40;0.23;;;-0.70;99.90;;;;;;5112910;28;20384;-72
2022/01/07 03:27:15;;;;;;;0.40;0.20;;;-0.70;99.90;;;;;;5113604;28;20424;-71
2022/01/07 03:29:40;;;;;;;0.40;0.30;;;-0.80;99.90;;;;;;5113249;28;20636;-71
2022/01/07 03:32:07;;;;;;;0.40;0.20;;;-0.70;99.90;;;;;;5112957;28;20385;-72
2022/01/07 03:34:33;;;;;;;0.40;0.30;;;-0.80;99.90;;;;;;5113525;28;20384;-71
2022/01/07 03:36:58;;;;;;;0.40;0.20;;;-0.80;99.90;;;;;;5113007;28;20912;-72
2022/01/07 03:39:24;;;;;;;0.40;0.20;;;-0.70;99.90;;;;;;5113707;28;20383;-71
2022/01/07 03:41:49;;;;;;;0.40;0.20;;;-0.60;99.90;;;;;;5113034;28;20391;-72
2022/01/07 03:44:16;;;;;;;0.80;0.80;;;-0.70;99.90;;;;;;5121373;27;20394;-71
2022/01/07 03:46:41;;;;;;;0.50;0.50;;;-0.60;99.90;;;;;;5133838;27;20453;-71
2022/01/07 03:49:07;;;;;;;0.40;0.20;;;-0.50;99.90;;;;;;5133171;27;20458;-72
2022/01/07 03:51:33;;;;;;;0.40;0.20;;;-0.50;99.90;;;;;;5133685;27;20378;-72
2022/01/07 03:53:58;;;;;;;0.40;0.30;;;-0.50;99.90;;;;;;5133685;27;20708;-71
2022/01/07 03:56:24;;;;;;;0.40;0.20;;;-0.40;99.90;;;;;;5133053;27;20402;-71
2022/01/07 03:58:50;;;;;;;0.40;0.20;;;-0.50;99.90;;;;;;5133662;27;20419;-71
2022/01/07 04:01:15;;;;;;;0.40;0.30;;;-0.50;99.90;;;;;;5133121;27;20414;-72
2022/01/07 04:03:41;;;;;;;0.40;0.30;;;-0.50;99.90;;;;;;5133360;27;20428;-71
2022/01/07 04:06:07;;;;;;;0.40;0.20;;;-0.40;99.90;;;;;;5133234;27;20544;-71
2022/01/07 04:08:32;;;;;;;0.40;0.20;;;-0.40;99.90;;;;;;5132809;27;20485;-71
2022/01/07 04:10:58;;;;;;;0.40;0.20;;;-0.40;99.90;;;;;;5133183;27;20371;-71
2022/01/07 04:13:24;;;;;;;0.40;0.20;;;-0.40;99.90;;;;;;5132776;27;20374;-71
2022/01/07 04:15:50;;;;;;;0.40;0.20;;;-0.40;99.90;;;;;;5133510;27;20720;-71
2022/01/07 04:18:15;;;;;;;0.40;0.30;;;-0.50;99.90;;;;;;5132973;27;20375;-71
2022/01/07 04:20:41;;;;;;;0.40;0.20;;;-0.40;99.90;;;;;;5114136;27;20387;-72
2022/01/07 04:23:08;;;;;;;0.40;0.20;;;-0.40;99.90;;;;;;5133385;27;20395;-71
2022/01/07 04:25:34;;;;;;;0.40;0.30;;;-0.30;99.90;;;;;;5132243;27;20387;-72
2022/01/07 04:28:06;;;;;;;0.40;0.20;;;-0.40;99.90;;;;;;5132804;27;20458;-71
2022/01/07 04:30:38;;;;;;;0.40;0.30;;;-0.40;99.90;;;;;;5132580;27;20463;-72
2022/01/07 04:33:05;;;;;;;0.40;0.20;;;-0.40;99.90;;;;;;5133310;27;20378;-71
2022/01/07 04:35:33;;;;;;;0.40;0.20;;;-0.40;99.90;;;;;;5114783;27;20379;-72
2022/01/07 04:37:58;;;;;;;0.40;0.30;;;-0.30;99.90;;;;;;5132473;27;20393;-72
2022/01/07 04:40:24;;;;;;;0.40;0.20;;;-0.40;99.90;;;;;;5114828;27;20387;-72
2022/01/07 04:42:50;;;;;;;0.40;0.30;;;-0.40;99.90;;;;;;5132461;27;20413;-72
2022/01/07 04:45:16;;;;;;;0.40;0.20;;;-0.50;99.90;;;;;;5115565;27;20422;-71
2022/01/07 04:47:42;;;;;;;0.40;0.20;;;-0.50;99.90;;;;;;5112380;28;20801;-71
2022/01/07 04:50:11;;;;;;;0.40;0.20;;;-0.40;99.90;;;;;;5112466;28;20487;-72
2022/01/07 04:52:43;;;;;;;0.40;0.20;;;-0.50;99.90;;;;;;5112331;28;20372;-71
2022/01/07 04:55:14;;;;;;;0.40;0.30;;;-0.40;99.90;;;;;;5111770;28;20860;-72
2022/01/07 04:57:41;;;;;;;0.40;0.20;;;-0.50;99.90;;;;;;5112344;28;20380;-71
2022/01/07 05:00:07;;;;;;;0.40;0.20;;;-0.40;99.90;;;;;;5111606;28;20781;-72
2022/01/07 05:02:32;;;;;;;2.40;1.00;;;-0.40;99.90;;;;;;5111779;28;20384;-71
2022/01/07 05:04:58;;;;;;;0.40;0.20;;;-0.30;99.90;;;;;;5111342;28;20736;-72
2022/01/07 05:07:24;;;;;;;0.40;0.20;;;-0.30;99.90;;;;;;5112441;28;20453;-71
2022/01/07 05:09:49;;;;;;;0.40;0.30;;;-0.40;99.90;;;;;;5112087;28;20438;-71
2022/01/07 05:12:15;;;;;;;0.40;0.20;;;-0.40;99.90;;;;;;5111700;28;20436;-71
2022/01/07 05:14:40;;;;;;;0.60;0.60;;;-0.40;99.90;;;;;;5112154;28;20802;-71
2022/01/07 05:17:06;;;;;;;0.40;0.20;;;-0.30;99.90;;;;;;5111412;28;20490;-72
2022/01/07 05:19:32;;;;;;;0.40;0.20;;;-0.20;99.90;;;;;;5112015;28;20521;-71
2022/01/07 05:21:57;;;;;;;0.40;0.20;;;-0.30;99.90;;;;;;5111822;28;20845;-71
2022/01/07 05:24:23;;;;;;;0.40;0.30;;;-0.30;99.90;;;;;;5111351;28;20377;-71
2022/01/07 05:26:49;;;;;;;0.40;0.30;;;-0.20;99.90;;;;;;5111969;28;20392;-71
2022/01/07 05:29:15;;;;;;;0.40;0.20;;;-0.20;99.90;;;;;;5111072;28;20384;-72
2022/01/07 05:31:41;;;;;;;0.40;0.20;;;-0.30;99.90;;;;;;5111798;28;20502;-72
2022/01/07 05:34:07;;;;;;;0.40;0.40;;;-0.20;99.90;;;;;;5112123;28;20861;-72
2022/01/07 05:36:32;;;;;;;0.40;0.20;;;-0.20;99.90;;;;;;5110893;28;20395;-71
2022/01/07 05:38:58;;;;;;;0.40;0.20;;;-0.30;99.90;;;;;;5111379;28;20399;-71
2022/01/07 05:41:24;;;;;;;0.40;0.20;;;-0.10;99.90;;;;;;5111128;28;20378;-72
2022/01/07 05:43:50;;;;;;;0.40;0.20;;;-0.10;99.90;;;;;;5116644;28;20469;-71
2022/01/07 05:46:16;;;;;;;0.40;0.20;;;-0.20;99.90;;;;;;5132230;28;20378;-71
2022/01/07 05:48:46;;;;;;;0.40;0.20;;;-0.10;99.90;;;;;;5131335;28;20405;-71
2022/01/07 05:51:13;;;;;;;0.40;0.20;;;-0.10;99.90;;;;;;5131816;28;20443;-71
2022/01/07 05:53:39;;;;;;;0.40;0.30;;;-0.10;99.90;;;;;;5113112;28;20747;-71
2022/01/07 05:56:05;;;;;;;0.40;0.20;;;0.00;99.90;;;;;;5132359;28;20382;-71
2022/01/07 05:58:32;;;;;;;0.40;0.20;;;0.00;99.90;;;;;;5131683;28;20442;-71
2022/01/07 06:00:58;;;;;;;0.40;0.22;;;-0.10;99.90;;;;;;5131730;28;20378;-71
2022/01/07 06:03:24;;;;;;;0.40;0.20;;;-0.10;99.90;;;;;;5131765;28;20379;-71
2022/01/07 06:05:50;;;;;;;0.40;0.27;;;-0.10;99.90;;;;;;5131218;28;20716;-71
2022/01/07 06:08:16;;;;;;;0.40;0.30;;;-0.10;99.90;;;;;;5131487;28;20399;-71
2022/01/07 06:10:41;;;;;;;0.40;0.20;;;0.00;99.90;;;;;;5131732;28;20383;-72
2022/01/07 06:13:07;;;;;;;0.40;0.30;;;0.00;99.90;;;;;;5131987;28;20723;-71
2022/01/07 06:15:33;;;;;;;0.40;0.20;;;-0.10;99.90;;;;;;5131806;28;20380;-71
2022/01/07 06:18:01;;;;;;;0.40;0.20;;;-0.10;99.90;;;;;;5130959;28;20386;-71
2022/01/07 06:20:27;;;;;;;0.40;0.20;;;-0.10;99.90;;;;;;5131541;28;20379;-71
2022/01/07 06:22:52;;;;;;;0.40;0.20;;;0.00;99.90;;;;;;5130885;28;20375;-71
2022/01/07 06:25:18;;;;;;;0.40;0.20;;;0.00;99.90;;;;;;5131644;28;20885;-71
2022/01/07 06:27:44;;;;;;;0.40;0.20;;;-0.10;99.90;;;;;;5131662;28;20747;-71
2022/01/07 06:30:10;;;;;;;0.40;0.30;;;-0.10;99.90;;;;;;5131061;28;20379;-71
2022/01/07 06:32:36;;;;;;;0.40;0.20;;;0.00;99.90;;;;;;5131639;28;20398;-71
2022/01/07 06:35:03;;;;;;;0.40;0.20;;;0.00;99.90;;;;;;5131054;28;20402;-72
2022/01/07 06:37:28;;;;;;;0.40;0.20;;;-0.10;99.90;;;;;;5131794;28;20801;-71
2022/01/07 06:39:55;;;;;;;0.40;0.20;;;-0.10;99.90;;;;;;5131316;28;20414;-71
2022/01/07 06:42:21;;;;;;;0.40;0.30;;;-0.10;99.90;;;;;;5115673;27;20390;-71
2022/01/07 06:44:47;;;;;;;0.40;0.30;;;0.00;99.90;;;;;;5121970;27;20387;-71
2022/01/07 06:47:13;;;;;;;0.60;0.50;;;0.00;99.90;;;;;;5113905;28;20472;-71
2022/01/07 06:49:39;;;;;;;0.50;0.50;;;0.00;99.90;;;;;;5114358;28;20504;-71
2022/01/07 06:52:05;;;;;;;0.40;0.20;;;0.10;99.90;;;;;;5114795;28;20373;-71
2022/01/07 06:54:32;;;;;;;0.40;0.27;;;0.00;99.90;;;;;;5113616;28;20380;-71
2022/01/07 06:56:58;;;;;;;0.40;0.20;;;0.10;99.90;;;;;;5114420;28;20789;-71
2022/01/07 06:59:24;;;;;;;0.50;0.50;;;0.30;99.90;;;;;;5113921;28;20396;-71
2022/01/07 07:01:49;;;;;;;0.40;0.20;;;0.10;99.90;;;;;;5114490;28;20376;-71
2022/01/07 07:04:16;;;;;;;0.40;0.20;;;0.10;99.90;;;;;;5114412;28;20377;-71
2022/01/07 07:06:42;;;;;;;0.40;0.30;;;0.10;99.90;;;;;;5096364;28;20756;-71
2022/01/07 07:09:08;;;;;;;0.40;0.20;;;0.20;99.90;;;;;;5114715;28;20391;-71
2022/01/07 07:11:34;;;;;;;0.40;0.20;;;0.10;99.90;;;;;;5113782;28;20360;-71
2022/01/07 07:13:59;;;;;;;0.40;0.20;;;0.10;99.90;;;;;;5114243;28;20514;-71
2022/01/07 07:16:25;;;;;;;0.40;0.20;;;0.10;99.90;;;;;;5113339;28;20380;-72
2022/01/07 07:18:51;;;;;;;0.40;0.20;;;0.10;99.90;;;;;;5114088;28;20381;-71
2022/01/07 07:21:17;;;;;;;0.43;0.30;;;0.10;99.90;;;;;;5114217;28;20373;-71
2022/01/07 07:23:43;;;;;;;0.40;0.30;;;0.10;99.90;;;;;;5113445;28;20408;-72
2022/01/07 07:26:08;;;;;;;0.40;0.20;;;0.10;99.90;;;;;;5113796;28;20453;-71
2022/01/07 07:28:36;;;;;;;0.40;0.20;;;0.10;99.90;;;;;;5113257;28;20459;-71
2022/01/07 07:31:05;;;;;;;0.40;0.30;;;0.00;99.90;;;;;;5114086;28;20475;-71
2022/01/07 07:33:54;;;;;;;0.40;0.20;;;0.10;99.90;;;;;;5113845;28;20376;-71
2022/01/07 07:36:31;;;;;;;0.40;0.20;;;0.10;99.90;;;;;;5113723;28;20796;-71
2022/01/07 07:39:06;;;;;;;0.40;0.20;;;0.10;99.90;;;;;;5113117;28;20436;-71
2022/01/07 07:41:33;;;;;;;0.40;0.20;;;0.10;99.90;;;;;;5113433;28;20863;-71
2022/01/07 07:43:59;;;;;;;0.40;0.20;;;0.10;99.90;;;;;;5119104;27;20903;-71
2022/01/07 07:46:28;;;;;;;0.40;0.40;;;0.10;99.90;;;;;;5134195;27;20373;-71
2022/01/07 07:48:54;;;;;;;0.40;0.30;;;0.20;99.90;;;;;;5133334;27;20441;-71
2022/01/07 07:51:19;;;;;;;0.50;0.50;;;0.10;99.90;;;;;;5134073;27;20402;-71
2022/01/07 07:53:46;;;;;;;0.40;0.20;;;0.10;99.90;;;;;;5132844;27;20839;-72
2022/01/07 07:56:14;;;;;;;0.40;0.20;;;0.20;99.90;;;;;;5133971;27;20374;-71
2022/01/07 07:58:40;;;;;;;0.40;0.20;;;0.10;99.90;;;;;;5115576;27;20923;-71
2022/01/07 08:01:06;;;;;;;0.40;0.20;;;0.30;99.90;;;;;;5133363;27;20375;-71
2022/01/07 08:03:32;;;;;;;0.40;0.20;;;0.30;99.90;;;;;;5133818;27;20391;-71
2022/01/07 08:05:58;;;;;;;0.40;0.20;;;0.40;99.90;;;;;;5114677;27;20905;-71
2022/01/07 08:08:24;;;;;;;0.40;0.40;;;0.40;99.90;;;;;;5133816;27;20398;-71
2022/01/07 08:10:54;;;;;;;0.40;0.20;;;0.50;99.90;;;;;;5133800;27;20404;-71
2022/01/07 08:15:58;;;;;;;0.40;0.30;;;0.50;99.90;;;;;;5133617;27;20386;-71
2022/01/07 08:16:19;;;;;;;0.40;0.30;;;0.50;99.90;;;;;;5132520;27;20887;-71
2022/01/07 08:18:50;;;;;;;0.60;0.60;;;0.60;99.90;;;;;;5133841;27;20742;-71
2022/01/07 08:21:16;;;;;;;0.40;0.30;;;0.80;99.90;;;;;;5133016;27;20951;-71
2022/01/07 08:23:44;;;;;;;0.40;0.30;;;0.70;99.90;;;;;;5133334;27;20412;-71
2022/01/07 08:26:12;;;;;;;1.20;0.80;;;0.70;99.90;;;;;;5133000;27;20386;-71
2022/01/07 08:28:43;;;;;;;0.40;0.20;;;0.80;99.90;;;;;;5133249;27;20402;-71
2022/01/07 08:36:28;;;;;;;0.40;0.20;;;0.90;99.90;;;;;;5132883;27;20394;-71
2022/01/07 08:38:55;;;;;;;0.40;0.20;;;1.50;99.90;;;;;;5133131;27;20374;-71
2022/01/07 08:41:22;;;;;;;0.40;0.20;;;1.40;99.90;;;;;;5132424;27;20849;-71
2022/01/07 08:43:49;;;;;;;0.40;0.20;;;1.50;99.90;;;;;;5127938;27;20441;-71
2022/01/07 08:46:15;;;;;;;0.40;0.20;;;1.50;99.90;;;;;;5112485;28;20387;-71
2022/01/07 08:48:41;;;;;;;0.40;0.20;;;1.50;99.90;;;;;;5112244;28;20419;-71
2022/01/07 08:51:07;;;;;;;0.40;0.30;;;1.60;99.90;;;;;;5112365;28;20369;-71
2022/01/07 08:53:34;;;;;;;0.40;0.20;;;1.80;99.90;;;;;;5111541;28;20775;-71
2022/01/07 08:56:00;;;;;;;0.40;0.20;;;2.30;99.90;;;;;;5112054;28;20886;-71
2022/01/07 08:58:25;;;;;;;0.40;0.20;;;2.60;99.90;;;;;;5111505;28;20376;-72
2022/01/07 09:00:51;;;;;;;0.40;0.20;;;2.70;99.90;;;;;;5111876;28;21014;-72
2022/01/07 09:03:17;;;;;;;0.40;0.20;;;2.80;99.90;;;;;;5111672;28;20426;-71
2022/01/07 09:05:44;;;;;;;0.90;0.60;;;2.90;99.90;;;;;;5110184;28;20733;-72
2022/01/07 09:08:11;;;;;;;0.40;0.20;;;3.10;99.90;;;;;;5111737;28;20396;-72
2022/01/07 09:10:41;;;;;;;0.40;0.20;;;3.30;99.90;;;;;;5111521;28;20381;-72
2022/01/07 09:13:08;;;;;;;0.40;0.20;;;3.30;99.90;;;;;;5111958;28;20376;-71
2022/01/07 09:15:35;;;;;;;0.40;0.20;;;3.40;99.90;;;;;;5111354;28;20372;-72
2022/01/07 09:18:09;;;;;;;0.40;0.20;;;3.50;99.90;;;;;;5111649;28;20884;-72
2022/01/07 09:20:45;;;;;;;0.40;0.20;;;3.70;99.90;;;;;;5111546;28;20435;-73
2022/01/07 09:23:12;;;;;;;0.40;0.20;;;3.70;99.90;;;;;;5111766;28;20766;-72
2022/01/07 09:25:38;;;;;;;0.40;0.20;;;3.60;99.90;;;;;;5111580;28;20400;-72
2022/01/07 09:28:05;;;;;;;0.40;0.20;;;3.60;99.90;;;;;;5111643;28;20872;-71
2022/01/07 09:30:31;;;;;;;0.40;0.20;;;3.70;99.90;;;;;;5111582;28;20372;-71
2022/01/07 09:32:57;;;;;;;0.40;0.20;;;3.80;99.90;;;;;;5111118;28;20375;-72
2022/01/07 09:35:23;;;;;;;0.40;0.20;;;3.80;99.90;;;;;;5111870;28;20840;-71
2022/01/07 09:37:50;;;;;;;0.40;0.20;;;3.80;99.90;;;;;;5110602;28;20435;-72
2022/01/07 09:40:17;;;;;;;0.40;0.20;;;3.80;99.90;;;;;;5111299;28;20872;-71
2022/01/07 09:43:04;;;;;;;0.40;0.20;;;3.80;99.90;;;;;;5111741;28;20434;-71
2022/01/07 09:45:31;;;;;;;7.30;0.70;;;3.90;99.30;;;;;;5130705;27;20461;-71
2022/01/07 09:47:58;;;;;;;0.40;0.20;;;3.90;99.10;;;;;;5131242;28;20446;-72
2022/01/07 09:50:26;;;;;;;0.40;0.20;;;3.90;99.90;;;;;;5131765;28;20866;-72
2022/01/07 09:52:52;;;;;;;0.50;0.50;;;4.00;99.90;;;;;;5131690;28;20737;-71
2022/01/07 09:55:18;;;;;;;0.40;0.40;;;3.90;99.40;;;;;;5131823;28;20479;-71
2022/01/07 09:57:44;;;;;;;0.40;0.22;;;4.00;99.70;;;;;;5132049;28;20801;-71
2022/01/07 10:00:11;;;;;;;0.40;0.20;;;4.00;99.90;;;;;;5131084;28;20402;-71
2022/01/07 10:02:37;;;;;;;0.40;0.20;;;3.90;99.00;;;;;;5131920;28;20403;-71
2022/01/07 10:05:16;;;;;;;0.40;0.20;;;4.00;99.00;;;;;;5131352;28;20779;-71
2022/01/07 10:07:43;;;;;;;0.40;0.30;;;4.00;99.20;;;;;;5132105;28;20414;-71
2022/01/07 10:10:12;;;;;;;0.40;0.20;;;4.00;98.60;;;;;;5131226;28;20464;-71
2022/01/07 10:13:03;;;;;;;0.40;0.20;;;3.90;99.40;;;;;;5131835;28;20427;-71
2022/01/07 10:15:40;;;;;;;0.40;0.20;;;3.90;98.70;;;;;;5131497;27;20377;-71
2022/01/07 10:18:11;;;;;;;0.40;0.20;;;3.90;98.20;;;;;;5136014;27;20861;-71
2022/01/07 10:20:40;;;;;;;0.40;0.20;;;3.80;98.30;;;;;;5136033;27;20378;-71
2022/01/07 10:23:14;;;;;;;0.40;0.30;;;3.70;98.50;;;;;;5135921;27;20452;-71
2022/01/07 10:25:43;;;;;;;0.40;0.20;;;3.70;98.50;;;;;;5135346;27;20395;-71
2022/01/07 10:28:15;;;;;;;0.40;0.20;;;3.70;98.90;;;;;;5135643;27;20454;-71
2022/01/07 10:30:47;;;;;;;0.40;0.20;;;3.70;99.10;;;;;;5135560;27;20393;-72
2022/01/07 10:33:26;;;;;;;0.40;0.20;;;3.50;99.90;;;;;;5135582;27;20922;-71
2022/01/07 10:35:57;;;;;;;0.40;0.30;;;3.50;99.90;;;;;;5135430;27;20423;-71
2022/01/07 10:38:25;;;;;;;0.40;0.20;;;3.30;99.90;;;;;;5135076;27;20397;-72
2022/01/07 10:40:53;;;;;;;0.40;0.20;;;3.20;99.90;;;;;;5135245;27;20539;-72
2022/01/07 10:43:24;;;;;;;0.40;0.30;;;2.90;99.90;;;;;;5135505;27;20367;-72
2022/01/07 10:45:57;;;;;;;0.40;0.20;;;2.80;99.90;;;;;;5135392;27;20437;-72
2022/01/07 10:48:43;;;;;;;0.40;0.20;;;2.90;99.90;;;;;;5135278;27;20854;-72
2022/01/07 10:51:13;;;;;;;0.40;0.20;;;2.90;99.90;;;;;;5135154;27;20773;-72
2022/01/07 10:53:41;;;;;;;0.40;0.20;;;3.00;99.90;;;;;;5134615;27;20371;-72
2022/01/07 10:56:14;;;;;;;0.40;0.20;;;2.90;99.90;;;;;;5135114;27;20406;-72
2022/01/07 10:58:42;;;;;;;0.40;0.30;;;3.00;99.90;;;;;;5134777;27;20454;-72
2022/01/07 11:01:29;;;;;;;0.40;0.20;;;3.20;99.90;;;;;;5135032;27;20386;-72
2022/01/07 11:03:57;;;;;;;0.40;0.22;;;3.30;99.90;;;;;;5116051;27;20379;-72
2022/01/07 11:06:24;;;;;;;0.40;0.20;;;3.40;99.90;;;;;;5134712;27;20430;-72
2022/01/07 11:08:52;;;;;;;0.40;0.20;;;3.50;99.90;;;;;;5134057;27;20927;-72
2022/01/07 11:11:20;;;;;;;0.40;0.20;;;3.50;99.90;;;;;;5134916;27;20386;-72
2022/01/07 11:13:46;;;;;;;0.40;0.30;;;3.50;99.90;;;;;;5134387;27;20430;-72
2022/01/07 11:16:12;;;;;;;0.40;0.20;;;3.60;99.90;;;;;;5134870;27;20367;-71
2022/01/07 11:18:41;;;;;;;0.40;0.30;;;3.50;99.90;;;;;;5134798;27;20366;-72
2022/01/07 11:21:09;;;;;;;0.40;0.30;;;3.60;99.90;;;;;;5134745;27;20375;-72
2022/01/07 11:23:39;;;;;;;0.40;0.30;;;3.50;99.90;;;;;;5134745;27;20367;-72
2022/01/07 11:26:05;;;;;;;0.40;0.28;;;3.60;99.90;;;;;;5133859;27;20777;-72
2022/01/07 11:28:32;;;;;;;0.40;0.30;;;3.60;99.90;;;;;;5133589;27;20482;-72
2022/01/07 11:31:13;;;;;;;0.40;0.20;;;3.60;99.90;;;;;;5134010;27;20374;-72
2022/01/07 11:33:39;;;;;;;0.40;0.20;;;3.50;99.90;;;;;;5134654;27;20444;-72
2022/01/07 11:36:10;;;;;;;0.40;0.20;;;3.50;99.90;;;;;;5133762;27;20391;-72
2022/01/07 11:38:40;;;;;;;0.40;0.20;;;3.40;99.90;;;;;;5134771;27;20367;-73
2022/01/07 11:41:09;;;;;;;0.40;0.30;;;3.40;99.90;;;;;;5133791;27;20382;-72
2022/01/07 11:43:41;;;;;;;0.40;0.20;;;3.50;99.90;;;;;;5131221;27;20372;-72
2022/01/07 11:46:28;;;;;;;0.40;0.20;;;3.40;99.90;;;;;;5113049;28;20372;-72
2022/01/07 11:48:55;;;;;;;0.40;0.30;;;3.40;99.90;;;;;;5112846;28;20894;-72
2022/01/07 11:51:22;;;;;;;0.40;0.20;;;3.30;99.90;;;;;;5113590;28;20422;-72
2022/01/07 11:53:48;;;;;;;0.40;0.25;;;3.30;99.90;;;;;;5113494;28;20381;-72
2022/01/07 11:56:19;;;;;;;0.40;0.20;;;3.20;99.90;;;;;;5112958;28;20372;-72
2022/01/07 11:58:45;;;;;;;0.40;0.20;;;3.20;99.90;;;;;;5113678;28;20438;-72
2022/01/07 12:01:29;;;;;;;0.60;0.60;;;3.20;99.90;;;;;;5112826;28;20392;-72
2022/01/07 12:03:57;;;;;;;0.40;0.20;;;3.30;99.90;;;;;;5113420;28;20372;-72
2022/01/07 12:06:24;;;;;;;0.60;0.60;;;3.50;99.90;;;;;;5112716;28;20426;-72
2022/01/07 12:08:59;;;;;;;0.40;0.30;;;3.50;99.90;;;;;;5113129;28;20407;-72
2022/01/07 12:11:26;;;;;;;0.40;0.20;;;3.40;99.90;;;;;;5112512;28;20415;-72
2022/01/07 12:13:52;;;;;;;0.40;0.30;;;3.40;99.90;;;;;;5113265;28;20369;-72
2022/01/07 12:16:22;;;;;;;0.40;0.30;;;3.50;99.90;;;;;;5112300;28;20441;-71
2022/01/07 12:18:48;;;;;;;0.40;0.20;;;3.60;99.90;;;;;;5113030;28;20393;-71
2022/01/07 12:21:14;;;;;;;0.40;0.20;;;3.50;99.90;;;;;;5112552;28;20376;-71
2022/01/07 12:23:41;;;;;;;0.40;0.20;;;3.50;99.90;;;;;;5112674;28;20376;-70
2022/01/07 12:26:08;;;;;;;0.40;0.20;;;3.70;99.90;;;;;;5112754;28;20405;-71
2022/01/07 12:28:48;;;;;;;0.40;0.30;;;3.70;99.90;;;;;;5112180;28;20453;-71
2022/01/07 12:31:14;;;;;;;0.40;0.30;;;3.60;99.90;;;;;;5112855;28;20476;-71
2022/01/07 12:33:59;;;;;;;0.40;0.20;;;3.80;99.90;;;;;;5112865;28;20395;-71
2022/01/07 12:36:35;;;;;;;0.40;0.30;;;3.80;99.90;;;;;;5111985;28;20392;-71
2022/01/07 12:39:09;;;;;;;0.40;0.20;;;3.80;99.90;;;;;;5111624;28;20468;-71
2022/01/07 12:41:38;;;;;;;0.40;0.20;;;3.90;99.90;;;;;;5111363;28;20468;-71
2022/01/07 12:44:12;;;;;;;0.40;0.20;;;3.90;99.90;;;;;;5118960;27;20506;-71
2022/01/07 12:46:40;;;;;;;0.40;0.20;;;3.90;99.90;;;;;;5131605;27;20375;-71
2022/01/07 12:49:08;;;;;;;0.40;0.30;;;3.90;99.90;;;;;;5132295;27;20474;-71
2022/01/07 12:51:35;;;;;;;0.40;0.30;;;4.00;99.90;;;;;;5131975;27;20379;-71
2022/01/07 12:54:04;;;;;;;0.40;0.20;;;4.00;99.90;;;;;;5132523;27;20735;-71
2022/01/07 12:56:38;;;;;;;0.40;0.20;;;3.90;99.90;;;;;;5132105;27;20795;-72
2022/01/07 12:59:18;;;;;;;0.40;0.30;;;4.00;99.90;;;;;;5132508;27;20374;-72
2022/01/07 13:01:46;;;;;;;0.40;0.20;;;4.10;99.90;;;;;;5125862;27;20396;-72